AAL2031 KORD-KDCA
Flight info
| Callsign | AAL2031 |
|---|---|
| Flight time | 1h 20m |
| Altitude | 37000 |
| Route | MOBLE ADIME OTENS ANEWA JERRI NUSMM BUCKO FRDMM6 |
| Aircraft | B738/M-SDE2E3FGHIRWXY/LB1 |
Departure
| Time | 2026-05-06 01:48 |
|---|---|
| Airport | Chicago O'Hare International Airport (KORD) |
Arrival
| Time | 2026-05-06 03:08 |
|---|---|
| Airport | Ronald Reagan Washington National Airport (KDCA) |
| Time | Latitude | Longitude | Altitude | Speed | Heading |
|---|---|---|---|---|---|
| 2026-05-06 01:01 | 41.97738 | -87.89709 | 670 ft | 0 kts | 180° |
| 2026-05-06 01:39 | 41.97752 | -87.89709 | 670 ft | 4 kts | 176° |
| 2026-05-06 01:39 | 41.97778 | -87.89716 | 668 ft | 4 kts | 144° |
| 2026-05-06 01:40 | 41.97788 | -87.89734 | 667 ft | 0 kts | 91° |
| 2026-05-06 01:42 | 41.97788 | -87.89728 | 670 ft | 3 kts | 91° |
| 2026-05-06 01:42 | 41.97787 | -87.89662 | 670 ft | 11 kts | 90° |
| 2026-05-06 01:43 | 41.97782 | -87.89546 | 670 ft | 10 kts | 105° |
| 2026-05-06 01:43 | 41.97750 | -87.89449 | 670 ft | 13 kts | 141° |
| 2026-05-06 01:43 | 41.97648 | -87.89431 | 670 ft | 17 kts | 180° |
| 2026-05-06 01:43 | 41.97511 | -87.89431 | 669 ft | 23 kts | 180° |
| 2026-05-06 01:44 | 41.97343 | -87.89433 | 669 ft | 24 kts | 180° |
| 2026-05-06 01:44 | 41.97224 | -87.89429 | 669 ft | 10 kts | 162° |
| 2026-05-06 01:44 | 41.97195 | -87.89335 | 669 ft | 13 kts | 91° |
| 2026-05-06 01:44 | 41.97196 | -87.89197 | 669 ft | 17 kts | 89° |
| 2026-05-06 01:45 | 41.97196 | -87.89016 | 669 ft | 22 kts | 89° |
| 2026-05-06 01:45 | 41.97196 | -87.88796 | 669 ft | 25 kts | 90° |
| 2026-05-06 01:45 | 41.97197 | -87.88586 | 669 ft | 19 kts | 90° |
| 2026-05-06 01:45 | 41.97197 | -87.88424 | 669 ft | 18 kts | 90° |
| 2026-05-06 01:46 | 41.97197 | -87.88243 | 669 ft | 20 kts | 90° |
| 2026-05-06 01:46 | 41.97197 | -87.88114 | 669 ft | 10 kts | 90° |
| 2026-05-06 01:46 | 41.97156 | -87.88036 | 669 ft | 13 kts | 169° |
| 2026-05-06 01:46 | 41.97059 | -87.88034 | 669 ft | 15 kts | 179° |
| 2026-05-06 01:47 | 41.96944 | -87.88044 | 669 ft | 18 kts | 207° |
| 2026-05-06 01:47 | 41.96792 | -87.88216 | 666 ft | 51 kts | 221° |
| 2026-05-06 01:47 | 41.96338 | -87.88750 | 670 ft | 119 kts | 221° |
| 2026-05-06 01:47 | 41.95575 | -87.89662 | 705 ft | 171 kts | 221° |
| 2026-05-06 01:48 | 41.94662 | -87.90602 | 1570 ft | 156 kts | 212° |
| 2026-05-06 01:48 | 41.93543 | -87.90857 | 2069 ft | 183 kts | 166° |
| 2026-05-06 01:48 | 41.92489 | -87.89836 | 2601 ft | 195 kts | 120° |
| 2026-05-06 01:48 | 41.92122 | -87.88051 | 3187 ft | 206 kts | 89° |
| 2026-05-06 01:49 | 41.92146 | -87.86020 | 3438 ft | 230 kts | 84° |
| 2026-05-06 01:49 | 41.92243 | -87.83835 | 3807 ft | 245 kts | 83° |
| 2026-05-06 01:49 | 41.92371 | -87.81500 | 4438 ft | 251 kts | 82° |
| 2026-05-06 01:49 | 41.92511 | -87.79100 | 4877 ft | 270 kts | 84° |
| 2026-05-06 01:50 | 41.92593 | -87.76531 | 4972 ft | 279 kts | 85° |
| 2026-05-06 01:50 | 41.92660 | -87.73951 | 5000 ft | 276 kts | 85° |
| 2026-05-06 01:50 | 41.92726 | -87.71381 | 5068 ft | 276 kts | 85° |
| 2026-05-06 01:50 | 41.92797 | -87.68780 | 5641 ft | 280 kts | 85° |
| 2026-05-06 01:51 | 41.92862 | -87.66490 | 6501 ft | 278 kts | 85° |
| 2026-05-06 01:51 | 41.92940 | -87.63852 | 7169 ft | 288 kts | 86° |
| 2026-05-06 01:51 | 41.93022 | -87.61122 | 7818 ft | 297 kts | 87° |
| 2026-05-06 01:51 | 41.93107 | -87.58301 | 8491 ft | 306 kts | 88° |
| 2026-05-06 01:52 | 41.93194 | -87.55405 | 9166 ft | 314 kts | 89° |
| 2026-05-06 01:52 | 41.93283 | -87.52440 | 9836 ft | 322 kts | 89° |
| 2026-05-06 01:52 | 41.93374 | -87.49418 | 10404 ft | 333 kts | 89° |
| 2026-05-06 01:52 | 41.93470 | -87.46204 | 10611 ft | 356 kts | 89° |
| 2026-05-06 01:53 | 41.93570 | -87.42827 | 11119 ft | 366 kts | 89° |
| 2026-05-06 01:53 | 41.93673 | -87.39378 | 11834 ft | 370 kts | 89° |
| 2026-05-06 01:53 | 41.93774 | -87.35955 | 12565 ft | 374 kts | 88° |
| 2026-05-06 01:53 | 41.93877 | -87.32438 | 13257 ft | 378 kts | 89° |
| 2026-05-06 01:54 | 41.93979 | -87.28889 | 13934 ft | 383 kts | 89° |
| 2026-05-06 01:54 | 41.94081 | -87.25303 | 14543 ft | 387 kts | 89° |
| 2026-05-06 01:54 | 41.94182 | -87.21655 | 15153 ft | 392 kts | 89° |
| 2026-05-06 01:54 | 41.94284 | -87.17977 | 15758 ft | 397 kts | 89° |
| 2026-05-06 01:55 | 41.94386 | -87.14247 | 16361 ft | 402 kts | 90° |
| 2026-05-06 01:55 | 41.94488 | -87.10473 | 16950 ft | 407 kts | 90° |
| 2026-05-06 01:55 | 41.94590 | -87.06655 | 17540 ft | 411 kts | 90° |
| 2026-05-06 01:55 | 41.94674 | -87.02783 | 18132 ft | 416 kts | 91° |
| 2026-05-06 01:56 | 41.94733 | -86.98881 | 18641 ft | 421 kts | 92° |
| 2026-05-06 01:56 | 41.94784 | -86.94913 | 19120 ft | 427 kts | 91° |
| 2026-05-06 01:56 | 41.94833 | -86.90920 | 19581 ft | 431 kts | 92° |
| 2026-05-06 01:56 | 41.94884 | -86.86876 | 20127 ft | 434 kts | 92° |
| 2026-05-06 01:57 | 41.94937 | -86.82790 | 20633 ft | 438 kts | 92° |
| 2026-05-06 01:57 | 41.94990 | -86.78672 | 21108 ft | 443 kts | 92° |
| 2026-05-06 01:57 | 41.95043 | -86.74519 | 21591 ft | 447 kts | 92° |
| 2026-05-06 01:57 | 41.95095 | -86.70374 | 22060 ft | 451 kts | 92° |
| 2026-05-06 01:58 | 41.95147 | -86.66155 | 22522 ft | 455 kts | 92° |
| 2026-05-06 01:58 | 41.95197 | -86.61875 | 22981 ft | 459 kts | 92° |
| 2026-05-06 01:58 | 41.95247 | -86.57576 | 23434 ft | 463 kts | 92° |
| 2026-05-06 01:58 | 41.95295 | -86.53214 | 23763 ft | 468 kts | 92° |
| 2026-05-06 01:59 | 41.95342 | -86.48825 | 24101 ft | 473 kts | 92° |
| 2026-05-06 01:59 | 41.95388 | -86.44396 | 24514 ft | 475 kts | 92° |
| 2026-05-06 01:59 | 41.95433 | -86.39952 | 24931 ft | 477 kts | 92° |
| 2026-05-06 01:59 | 41.95476 | -86.35473 | 25297 ft | 481 kts | 92° |
| 2026-05-06 02:00 | 41.95518 | -86.30964 | 25654 ft | 484 kts | 92° |
| 2026-05-06 02:00 | 41.95557 | -86.26442 | 26009 ft | 487 kts | 92° |
| 2026-05-06 02:00 | 41.95497 | -86.21865 | 26374 ft | 488 kts | 99° |
| 2026-05-06 02:00 | 41.94976 | -86.17442 | 26722 ft | 483 kts | 109° |
| 2026-05-06 02:01 | 41.94122 | -86.13068 | 27056 ft | 485 kts | 111° |
| 2026-05-06 02:01 | 41.93219 | -86.08689 | 27395 ft | 488 kts | 111° |
| 2026-05-06 02:01 | 41.92303 | -86.04278 | 27735 ft | 491 kts | 111° |
| 2026-05-06 02:01 | 41.91392 | -85.99841 | 28062 ft | 493 kts | 111° |
| 2026-05-06 02:02 | 41.90491 | -85.95382 | 28484 ft | 494 kts | 111° |
| 2026-05-06 02:02 | 41.89598 | -85.90915 | 28816 ft | 497 kts | 111° |
| 2026-05-06 02:02 | 41.88705 | -85.86422 | 29096 ft | 500 kts | 111° |
| 2026-05-06 02:02 | 41.87805 | -85.81883 | 29390 ft | 504 kts | 111° |
| 2026-05-06 02:03 | 41.86903 | -85.77338 | 29698 ft | 506 kts | 111° |
| 2026-05-06 02:03 | 41.86003 | -85.72812 | 29990 ft | 508 kts | 111° |
| 2026-05-06 02:03 | 41.85083 | -85.68201 | 30204 ft | 511 kts | 111° |
| 2026-05-06 02:03 | 41.84157 | -85.63576 | 30370 ft | 516 kts | 111° |
| 2026-05-06 02:04 | 41.83222 | -85.58919 | 30545 ft | 520 kts | 110° |
| 2026-05-06 02:04 | 41.82275 | -85.54215 | 30751 ft | 522 kts | 110° |
| 2026-05-06 02:04 | 41.81323 | -85.49490 | 31010 ft | 524 kts | 110° |
| 2026-05-06 02:04 | 41.80368 | -85.44762 | 31252 ft | 526 kts | 110° |
| 2026-05-06 02:05 | 41.79408 | -85.40025 | 31469 ft | 528 kts | 110° |
| 2026-05-06 02:05 | 41.78457 | -85.35336 | 31735 ft | 529 kts | 110° |
| 2026-05-06 02:05 | 41.77485 | -85.30562 | 31956 ft | 531 kts | 110° |
| 2026-05-06 02:05 | 41.76506 | -85.25767 | 32155 ft | 534 kts | 109° |
| 2026-05-06 02:06 | 41.75524 | -85.20964 | 32388 ft | 536 kts | 109° |
| 2026-05-06 02:06 | 41.74536 | -85.16146 | 32626 ft | 537 kts | 109° |
| 2026-05-06 02:06 | 41.73539 | -85.11291 | 32847 ft | 539 kts | 109° |
| 2026-05-06 02:06 | 41.72538 | -85.06434 | 33066 ft | 541 kts | 109° |
| 2026-05-06 02:07 | 41.71549 | -85.01642 | 33295 ft | 542 kts | 109° |
| 2026-05-06 02:07 | 41.70543 | -84.96777 | 33580 ft | 542 kts | 109° |
| 2026-05-06 02:07 | 41.69532 | -84.91899 | 33775 ft | 544 kts | 109° |
| 2026-05-06 02:07 | 41.68517 | -84.87016 | 33936 ft | 547 kts | 109° |
| 2026-05-06 02:08 | 41.67496 | -84.82112 | 34149 ft | 547 kts | 108° |
| 2026-05-06 02:08 | 41.66627 | -84.77149 | 34417 ft | 548 kts | 100° |
| 2026-05-06 02:08 | 41.66250 | -84.72058 | 34676 ft | 548 kts | 93° |
| 2026-05-06 02:08 | 41.66057 | -84.66973 | 34881 ft | 548 kts | 92° |
| 2026-05-06 02:09 | 41.65896 | -84.61872 | 35011 ft | 551 kts | 92° |
| 2026-05-06 02:09 | 41.65731 | -84.56729 | 35114 ft | 554 kts | 92° |
| 2026-05-06 02:09 | 41.65544 | -84.51566 | 35238 ft | 556 kts | 92° |
| 2026-05-06 02:09 | 41.65336 | -84.46405 | 35418 ft | 556 kts | 93° |
| 2026-05-06 02:10 | 41.65114 | -84.41313 | 35650 ft | 556 kts | 93° |
| 2026-05-06 02:10 | 41.64879 | -84.36150 | 35893 ft | 555 kts | 93° |
| 2026-05-06 02:10 | 41.64640 | -84.31007 | 36080 ft | 554 kts | 93° |
| 2026-05-06 02:10 | 41.64397 | -84.25827 | 36259 ft | 554 kts | 92° |
| 2026-05-06 02:11 | 41.64156 | -84.20692 | 36502 ft | 553 kts | 92° |
| 2026-05-06 02:11 | 41.63918 | -84.15634 | 36719 ft | 552 kts | 92° |
| 2026-05-06 02:11 | 41.63676 | -84.10512 | 36873 ft | 553 kts | 92° |
| 2026-05-06 02:11 | 41.63432 | -84.05373 | 36890 ft | 555 kts | 92° |
| 2026-05-06 02:12 | 41.62935 | -83.95080 | 36886 ft | 554 kts | 92° |
| 2026-05-06 02:12 | 41.62428 | -83.84801 | 36885 ft | 551 kts | 92° |
| 2026-05-06 02:13 | 41.61918 | -83.74627 | 36884 ft | 548 kts | 92° |
| 2026-05-06 02:13 | 41.61401 | -83.64469 | 36885 ft | 546 kts | 93° |
| 2026-05-06 02:14 | 41.60035 | -83.54524 | 36911 ft | 543 kts | 108° |
| 2026-05-06 02:14 | 41.57789 | -83.44880 | 36901 ft | 543 kts | 109° |
| 2026-05-06 02:15 | 41.55542 | -83.35282 | 36883 ft | 545 kts | 108° |
| 2026-05-06 02:15 | 41.53323 | -83.25525 | 36902 ft | 547 kts | 108° |
| 2026-05-06 02:16 | 41.51140 | -83.15834 | 36895 ft | 549 kts | 108° |
| 2026-05-06 02:16 | 41.48923 | -83.06050 | 36884 ft | 551 kts | 108° |
| 2026-05-06 02:17 | 41.46686 | -82.96243 | 36895 ft | 552 kts | 108° |
| 2026-05-06 02:17 | 41.44438 | -82.86436 | 36892 ft | 553 kts | 108° |
| 2026-05-06 02:18 | 41.42199 | -82.76707 | 36874 ft | 553 kts | 108° |
| 2026-05-06 02:18 | 41.39908 | -82.66924 | 36884 ft | 551 kts | 112° |
| 2026-05-06 02:19 | 41.36402 | -82.58005 | 36895 ft | 540 kts | 130° |
| 2026-05-06 02:19 | 41.34081 | -82.54130 | 36877 ft | 530 kts | 141° |
| 2026-05-06 02:19 | 41.31497 | -82.50642 | 36884 ft | 527 kts | 142° |
| 2026-05-06 02:20 | 41.23718 | -82.40335 | 36881 ft | 526 kts | 142° |
| 2026-05-06 02:21 | 41.18570 | -82.33422 | 36882 ft | 525 kts | 141° |
| 2026-05-06 02:21 | 41.13458 | -82.26518 | 36886 ft | 524 kts | 141° |
| 2026-05-06 02:22 | 41.08341 | -82.19614 | 36849 ft | 525 kts | 141° |
| 2026-05-06 02:22 | 41.03255 | -82.12775 | 36878 ft | 524 kts | 141° |
| 2026-05-06 02:23 | 40.98128 | -82.05902 | 36875 ft | 525 kts | 141° |
| 2026-05-06 02:23 | 40.92977 | -81.99014 | 36893 ft | 526 kts | 141° |
| 2026-05-06 02:24 | 40.87810 | -81.92120 | 36879 ft | 528 kts | 141° |
| 2026-05-06 02:24 | 40.82632 | -81.85227 | 36865 ft | 529 kts | 141° |
| 2026-05-06 02:25 | 40.77435 | -81.78322 | 36847 ft | 530 kts | 141° |
| 2026-05-06 02:25 | 40.72257 | -81.71461 | 36842 ft | 531 kts | 141° |
| 2026-05-06 02:26 | 40.67037 | -81.64559 | 36818 ft | 532 kts | 141° |
| 2026-05-06 02:26 | 40.61809 | -81.57662 | 36830 ft | 531 kts | 141° |
| 2026-05-06 02:27 | 40.56586 | -81.50789 | 36855 ft | 530 kts | 141° |
| 2026-05-06 02:27 | 40.51362 | -81.43932 | 36855 ft | 530 kts | 142° |
| 2026-05-06 02:28 | 40.46144 | -81.37100 | 36857 ft | 529 kts | 142° |
| 2026-05-06 02:28 | 40.40931 | -81.30288 | 36860 ft | 529 kts | 142° |
| 2026-05-06 02:29 | 40.35723 | -81.23489 | 36840 ft | 528 kts | 141° |
| 2026-05-06 02:29 | 40.30543 | -81.16771 | 36835 ft | 527 kts | 141° |
| 2026-05-06 02:30 | 40.25335 | -81.10007 | 36842 ft | 526 kts | 141° |
| 2026-05-06 02:30 | 40.20137 | -81.03272 | 36850 ft | 526 kts | 142° |
| 2026-05-06 02:31 | 40.14935 | -80.96552 | 36835 ft | 525 kts | 142° |
| 2026-05-06 02:31 | 40.09735 | -80.89848 | 36803 ft | 525 kts | 141° |
| 2026-05-06 02:32 | 40.04536 | -80.83158 | 36830 ft | 524 kts | 141° |
| 2026-05-06 02:32 | 39.99402 | -80.76404 | 36840 ft | 526 kts | 140° |
| 2026-05-06 02:33 | 39.94350 | -80.69483 | 36850 ft | 527 kts | 139° |
| 2026-05-06 02:33 | 39.92682 | -80.67192 | 36838 ft | 527 kts | 139° |
| 2026-05-06 02:34 | 39.84247 | -80.55714 | 36825 ft | 527 kts | 140° |
| 2026-05-06 02:34 | 39.79162 | -80.48857 | 36833 ft | 526 kts | 139° |
| 2026-05-06 02:35 | 39.74061 | -80.41994 | 36844 ft | 526 kts | 139° |
| 2026-05-06 02:35 | 39.68966 | -80.35147 | 36848 ft | 526 kts | 139° |
| 2026-05-06 02:36 | 39.63851 | -80.28292 | 36368 ft | 534 kts | 139° |
| 2026-05-06 02:36 | 39.61267 | -80.24835 | 35953 ft | 529 kts | 139° |
| 2026-05-06 02:36 | 39.59578 | -80.22573 | 35724 ft | 526 kts | 139° |
| 2026-05-06 02:36 | 39.57042 | -80.19181 | 35323 ft | 523 kts | 139° |
| 2026-05-06 02:37 | 39.54514 | -80.15806 | 34937 ft | 519 kts | 139° |
| 2026-05-06 02:37 | 39.52009 | -80.12465 | 34536 ft | 517 kts | 139° |
| 2026-05-06 02:37 | 39.49507 | -80.09135 | 34154 ft | 514 kts | 139° |
| 2026-05-06 02:37 | 39.47008 | -80.05814 | 33691 ft | 513 kts | 139° |
| 2026-05-06 02:38 | 39.44526 | -80.02518 | 33261 ft | 509 kts | 139° |
| 2026-05-06 02:38 | 39.42093 | -79.99289 | 32875 ft | 505 kts | 139° |
| 2026-05-06 02:38 | 39.39613 | -79.96014 | 32459 ft | 499 kts | 140° |
| 2026-05-06 02:38 | 39.37205 | -79.92883 | 32089 ft | 495 kts | 139° |
| 2026-05-06 02:39 | 39.34818 | -79.89690 | 31691 ft | 488 kts | 138° |
| 2026-05-06 02:39 | 39.32516 | -79.86544 | 31322 ft | 478 kts | 133° |
| 2026-05-06 02:39 | 39.30652 | -79.83002 | 30939 ft | 473 kts | 119° |
| 2026-05-06 02:39 | 39.29374 | -79.79145 | 30562 ft | 464 kts | 108° |
| 2026-05-06 02:40 | 39.28669 | -79.75120 | 30157 ft | 456 kts | 96° |
| 2026-05-06 02:40 | 39.28379 | -79.71090 | 29795 ft | 445 kts | 94° |
| 2026-05-06 02:40 | 39.28130 | -79.67145 | 29348 ft | 437 kts | 95° |
| 2026-05-06 02:40 | 39.27863 | -79.63266 | 28860 ft | 431 kts | 96° |
| 2026-05-06 02:41 | 39.27570 | -79.59469 | 28620 ft | 420 kts | 96° |
| 2026-05-06 02:41 | 39.27263 | -79.55701 | 28259 ft | 426 kts | 96° |
| 2026-05-06 02:41 | 39.26948 | -79.51858 | 27903 ft | 432 kts | 96° |
| 2026-05-06 02:41 | 39.26632 | -79.47990 | 27515 ft | 435 kts | 96° |
| 2026-05-06 02:42 | 39.26316 | -79.44117 | 27126 ft | 433 kts | 96° |
| 2026-05-06 02:42 | 39.26006 | -79.40308 | 26759 ft | 431 kts | 96° |
| 2026-05-06 02:42 | 39.25691 | -79.36457 | 26389 ft | 429 kts | 97° |
| 2026-05-06 02:42 | 39.25378 | -79.32638 | 26016 ft | 427 kts | 97° |
| 2026-05-06 02:43 | 39.25065 | -79.28843 | 25655 ft | 424 kts | 97° |
| 2026-05-06 02:43 | 39.24752 | -79.25069 | 25287 ft | 421 kts | 97° |
| 2026-05-06 02:43 | 39.24439 | -79.21327 | 24931 ft | 419 kts | 97° |
| 2026-05-06 02:43 | 39.24123 | -79.17596 | 24568 ft | 416 kts | 97° |
| 2026-05-06 02:44 | 39.23808 | -79.13904 | 24219 ft | 413 kts | 97° |
| 2026-05-06 02:44 | 39.23493 | -79.10223 | 23855 ft | 412 kts | 97° |
| 2026-05-06 02:44 | 39.23179 | -79.06556 | 23505 ft | 410 kts | 97° |
| 2026-05-06 02:44 | 39.22866 | -79.02913 | 23094 ft | 408 kts | 97° |
| 2026-05-06 02:45 | 39.22554 | -78.99279 | 22725 ft | 405 kts | 97° |
| 2026-05-06 02:45 | 39.22245 | -78.95720 | 22352 ft | 403 kts | 98° |
| 2026-05-06 02:45 | 39.21912 | -78.92146 | 21995 ft | 399 kts | 98° |
| 2026-05-06 02:45 | 39.21567 | -78.88607 | 21658 ft | 396 kts | 99° |
| 2026-05-06 02:46 | 39.21223 | -78.85100 | 21315 ft | 393 kts | 99° |
| 2026-05-06 02:46 | 39.20881 | -78.81622 | 20986 ft | 390 kts | 99° |
| 2026-05-06 02:46 | 39.20545 | -78.78167 | 20657 ft | 387 kts | 99° |
| 2026-05-06 02:46 | 39.20210 | -78.74730 | 20325 ft | 385 kts | 99° |
| 2026-05-06 02:47 | 39.19876 | -78.71309 | 19992 ft | 382 kts | 99° |
| 2026-05-06 02:47 | 39.19544 | -78.67924 | 19660 ft | 380 kts | 99° |
| 2026-05-06 02:47 | 39.19211 | -78.64552 | 19332 ft | 377 kts | 99° |
| 2026-05-06 02:47 | 39.18885 | -78.61256 | 19029 ft | 374 kts | 99° |
| 2026-05-06 02:48 | 39.18553 | -78.57895 | 18707 ft | 372 kts | 99° |
| 2026-05-06 02:48 | 39.18225 | -78.54593 | 18384 ft | 371 kts | 99° |
| 2026-05-06 02:48 | 39.17901 | -78.51342 | 18057 ft | 369 kts | 100° |
| 2026-05-06 02:48 | 39.17573 | -78.48046 | 17885 ft | 361 kts | 100° |
| 2026-05-06 02:49 | 39.17261 | -78.44918 | 17876 ft | 352 kts | 100° |
| 2026-05-06 02:49 | 39.16954 | -78.41847 | 17847 ft | 339 kts | 100° |
| 2026-05-06 02:49 | 39.16661 | -78.38913 | 17850 ft | 320 kts | 100° |
| 2026-05-06 02:49 | 39.16362 | -78.36148 | 17864 ft | 305 kts | 105° |
| 2026-05-06 02:50 | 39.15816 | -78.33551 | 17894 ft | 298 kts | 112° |
| 2026-05-06 02:50 | 39.15153 | -78.31018 | 17750 ft | 299 kts | 114° |
| 2026-05-06 02:50 | 39.14473 | -78.28473 | 17427 ft | 302 kts | 113° |
| 2026-05-06 02:50 | 39.13795 | -78.25888 | 16934 ft | 309 kts | 113° |
| 2026-05-06 02:51 | 39.13094 | -78.23170 | 15972 ft | 332 kts | 113° |
| 2026-05-06 02:51 | 39.12366 | -78.20288 | 15415 ft | 341 kts | 112° |
| 2026-05-06 02:51 | 39.11645 | -78.17384 | 15139 ft | 338 kts | 112° |
| 2026-05-06 02:51 | 39.10934 | -78.14518 | 14907 ft | 334 kts | 113° |
| 2026-05-06 02:52 | 39.10229 | -78.11686 | 14633 ft | 331 kts | 113° |
| 2026-05-06 02:52 | 39.09517 | -78.08873 | 14331 ft | 329 kts | 114° |
| 2026-05-06 02:52 | 39.08804 | -78.06082 | 14058 ft | 327 kts | 114° |
| 2026-05-06 02:52 | 39.08105 | -78.03347 | 13795 ft | 324 kts | 114° |
| 2026-05-06 02:53 | 39.07403 | -78.00602 | 13506 ft | 322 kts | 114° |
| 2026-05-06 02:53 | 39.06701 | -77.97864 | 13161 ft | 321 kts | 114° |
| 2026-05-06 02:53 | 39.05999 | -77.95133 | 12786 ft | 321 kts | 113° |
| 2026-05-06 02:53 | 39.05299 | -77.92401 | 12462 ft | 320 kts | 112° |
| 2026-05-06 02:54 | 39.04606 | -77.89697 | 12184 ft | 317 kts | 112° |
| 2026-05-06 02:54 | 39.03916 | -77.87011 | 11858 ft | 316 kts | 112° |
| 2026-05-06 02:54 | 39.03229 | -77.84338 | 11563 ft | 314 kts | 112° |
| 2026-05-06 02:54 | 39.02547 | -77.81686 | 11366 ft | 304 kts | 112° |
| 2026-05-06 02:55 | 39.01909 | -77.79198 | 11304 ft | 283 kts | 112° |
| 2026-05-06 02:55 | 39.01309 | -77.76865 | 11159 ft | 266 kts | 112° |
| 2026-05-06 02:55 | 39.00752 | -77.74705 | 11025 ft | 250 kts | 113° |
| 2026-05-06 02:55 | 39.00209 | -77.72610 | 10707 ft | 244 kts | 113° |
| 2026-05-06 02:56 | 38.99683 | -77.70582 | 10393 ft | 237 kts | 112° |
| 2026-05-06 02:56 | 38.99173 | -77.68615 | 10195 ft | 224 kts | 113° |
| 2026-05-06 02:56 | 38.98688 | -77.66743 | 9927 ft | 219 kts | 113° |
| 2026-05-06 02:56 | 38.98197 | -77.64890 | 9608 ft | 218 kts | 115° |
| 2026-05-06 02:57 | 38.97664 | -77.63073 | 9258 ft | 216 kts | 116° |
| 2026-05-06 02:57 | 38.97130 | -77.61281 | 9021 ft | 212 kts | 116° |
| 2026-05-06 02:57 | 38.96607 | -77.59521 | 8819 ft | 210 kts | 116° |
| 2026-05-06 02:57 | 38.96092 | -77.57784 | 8661 ft | 211 kts | 116° |
| 2026-05-06 02:58 | 38.95566 | -77.56010 | 8453 ft | 213 kts | 117° |
| 2026-05-06 02:58 | 38.95037 | -77.54225 | 8261 ft | 213 kts | 117° |
| 2026-05-06 02:58 | 38.94533 | -77.52436 | 8052 ft | 215 kts | 109° |
| 2026-05-06 02:58 | 38.94623 | -77.50506 | 7804 ft | 222 kts | 74° |
| 2026-05-06 02:59 | 38.95202 | -77.48664 | 7597 ft | 224 kts | 68° |
| 2026-05-06 02:59 | 38.95851 | -77.46817 | 7345 ft | 228 kts | 68° |
| 2026-05-06 02:59 | 38.96512 | -77.44939 | 7083 ft | 232 kts | 69° |
| 2026-05-06 02:59 | 38.97164 | -77.43056 | 6807 ft | 229 kts | 69° |
| 2026-05-06 03:00 | 38.97798 | -77.41195 | 6534 ft | 225 kts | 70° |
| 2026-05-06 03:00 | 38.98418 | -77.39358 | 6265 ft | 223 kts | 71° |
| 2026-05-06 03:00 | 38.99033 | -77.37521 | 6008 ft | 225 kts | 70° |
| 2026-05-06 03:00 | 38.99644 | -77.35691 | 5767 ft | 225 kts | 71° |
| 2026-05-06 03:01 | 39.00263 | -77.33834 | 5528 ft | 227 kts | 71° |
| 2026-05-06 03:01 | 39.00891 | -77.31958 | 5263 ft | 228 kts | 71° |
| 2026-05-06 03:01 | 39.01518 | -77.30098 | 5004 ft | 226 kts | 71° |
| 2026-05-06 03:01 | 39.02139 | -77.28250 | 4771 ft | 224 kts | 71° |
| 2026-05-06 03:02 | 39.02757 | -77.26411 | 4532 ft | 225 kts | 72° |
| 2026-05-06 03:02 | 39.03066 | -77.24508 | 4242 ft | 210 kts | 108° |
| 2026-05-06 03:02 | 39.02570 | -77.22905 | 4058 ft | 180 kts | 137° |
| 2026-05-06 03:02 | 39.01773 | -77.21769 | 3886 ft | 162 kts | 149° |
| 2026-05-06 03:03 | 39.00975 | -77.20799 | 3685 ft | 154 kts | 151° |
| 2026-05-06 03:03 | 39.00194 | -77.19865 | 3526 ft | 154 kts | 151° |
| 2026-05-06 03:03 | 38.99401 | -77.18917 | 3360 ft | 156 kts | 150° |
| 2026-05-06 03:03 | 38.98613 | -77.17966 | 3177 ft | 155 kts | 150° |
| 2026-05-06 03:04 | 38.97841 | -77.17000 | 2996 ft | 154 kts | 149° |
| 2026-05-06 03:04 | 38.97080 | -77.16041 | 2831 ft | 154 kts | 149° |
| 2026-05-06 03:04 | 38.96318 | -77.15107 | 2631 ft | 151 kts | 152° |
| 2026-05-06 03:04 | 38.95530 | -77.14227 | 2457 ft | 150 kts | 152° |
| 2026-05-06 03:05 | 38.94741 | -77.13350 | 2307 ft | 149 kts | 151° |
| 2026-05-06 03:05 | 38.93972 | -77.12497 | 2159 ft | 144 kts | 152° |
| 2026-05-06 03:05 | 38.93224 | -77.11721 | 1944 ft | 132 kts | 158° |
| 2026-05-06 03:05 | 38.92422 | -77.11099 | 1796 ft | 139 kts | 161° |
| 2026-05-06 03:06 | 38.91627 | -77.10407 | 1585 ft | 131 kts | 155° |
| 2026-05-06 03:06 | 38.90890 | -77.09628 | 1353 ft | 153 kts | 125° |
| 2026-05-06 03:06 | 38.90601 | -77.08297 | 1258 ft | 159 kts | 120° |
| 2026-05-06 03:06 | 38.90183 | -77.07016 | 1029 ft | 149 kts | 130° |
| 2026-05-06 03:07 | 38.89483 | -77.06097 | 875 ft | 145 kts | 145° |
| 2026-05-06 03:07 | 38.88699 | -77.05276 | 662 ft | 144 kts | 146° |
| 2026-05-06 03:07 | 38.87889 | -77.04555 | 424 ft | 139 kts | 149° |
| 2026-05-06 03:07 | 38.87046 | -77.04032 | 220 ft | 134 kts | 169° |
| 2026-05-06 03:08 | 38.86131 | -77.03872 | 45 ft | 130 kts | 178° |
| 2026-05-06 03:08 | 38.85367 | -77.03801 | 26 ft | 82 kts | 174° |
| 2026-05-06 03:08 | 38.85011 | -77.03763 | 22 ft | 24 kts | 176° |
| 2026-05-06 03:08 | 38.84885 | -77.03830 | 20 ft | 19 kts | 250° |
| 2026-05-06 03:09 | 38.84878 | -77.03894 | 20 ft | 0 kts | 266° |
| 2026-05-06 03:10 | 38.84878 | -77.03908 | 20 ft | 4 kts | 266° |
| 2026-05-06 03:10 | 38.84913 | -77.03952 | 20 ft | 12 kts | 344° |
| 2026-05-06 03:10 | 38.84976 | -77.03977 | 20 ft | 9 kts | 289° |
| 2026-05-06 03:11 | 38.84994 | -77.04026 | 20 ft | 2 kts | 300° |
| 2026-05-06 03:11 | 38.85000 | -77.04040 | 20 ft | 2 kts | 300° |
| 2026-05-06 03:11 | 38.85004 | -77.04046 | 20 ft | 0 kts | 301° |